sensor_id;sensor_type;location;lat;lon;timestamp;P1;durP1;ratioP1;P2;durP2;ratioP2
76617;SDS011;65509;42.816;74.648;2022-12-20T00:01:05;24.65;;;9.70;;
76617;SDS011;65509;42.816;74.648;2022-12-20T00:03:30;18.85;;;7.00;;
76617;SDS011;65509;42.816;74.648;2022-12-20T00:05:56;10.80;;;4.80;;
76617;SDS011;65509;42.816;74.648;2022-12-20T00:08:21;13.68;;;5.13;;
76617;SDS011;65509;42.816;74.648;2022-12-20T00:10:46;16.52;;;6.10;;
76617;SDS011;65509;42.816;74.648;2022-12-20T00:13:12;16.88;;;5.43;;
76617;SDS011;65509;42.816;74.648;2022-12-20T00:15:38;23.40;;;7.68;;
76617;SDS011;65509;42.816;74.648;2022-12-20T00:18:03;23.23;;;8.90;;
76617;SDS011;65509;42.816;74.648;2022-12-20T00:20:29;25.50;;;8.77;;
76617;SDS011;65509;42.816;74.648;2022-12-20T00:22:55;17.67;;;6.88;;
76617;SDS011;65509;42.816;74.648;2022-12-20T00:25:20;26.92;;;7.90;;
76617;SDS011;65509;42.816;74.648;2022-12-20T00:27:46;29.60;;;8.60;;
76617;SDS011;65509;42.816;74.648;2022-12-20T00:30:12;27.90;;;9.07;;
76617;SDS011;65509;42.816;74.648;2022-12-20T00:32:37;22.92;;;8.23;;
76617;SDS011;65509;42.816;74.648;2022-12-20T00:35:03;36.53;;;10.18;;
76617;SDS011;65509;42.816;74.648;2022-12-20T00:37:28;37.22;;;12.38;;
76617;SDS011;65509;42.816;74.648;2022-12-20T00:39:54;25.17;;;7.03;;
76617;SDS011;65509;42.816;74.648;2022-12-20T00:42:19;44.67;;;14.77;;
76617;SDS011;65509;42.816;74.648;2022-12-20T00:44:45;46.38;;;16.10;;
76617;SDS011;65509;42.816;74.648;2022-12-20T00:47:10;27.92;;;10.20;;
76617;SDS011;65509;42.816;74.648;2022-12-20T00:49:35;29.33;;;8.02;;
76617;SDS011;65509;42.816;74.648;2022-12-20T00:52:01;21.67;;;7.03;;
76617;SDS011;65509;42.816;74.648;2022-12-20T00:54:26;20.58;;;7.60;;
76617;SDS011;65509;42.816;74.648;2022-12-20T00:56:51;23.75;;;8.38;;
76617;SDS011;65509;42.816;74.648;2022-12-20T00:59:17;37.83;;;13.38;;
76617;SDS011;65509;42.816;74.648;2022-12-20T01:01:42;47.15;;;20.70;;
76617;SDS011;65509;42.816;74.648;2022-12-20T01:04:08;58.95;;;20.73;;
76617;SDS011;65509;42.816;74.648;2022-12-20T01:06:33;47.00;;;17.38;;
76617;SDS011;65509;42.816;74.648;2022-12-20T01:08:59;66.95;;;25.63;;
76617;SDS011;65509;42.816;74.648;2022-12-20T01:11:26;68.03;;;26.20;;
76617;SDS011;65509;42.816;74.648;2022-12-20T01:13:52;80.65;;;29.98;;
76617;SDS011;65509;42.816;74.648;2022-12-20T01:16:20;66.30;;;23.08;;
76617;SDS011;65509;42.816;74.648;2022-12-20T01:18:45;27.92;;;11.50;;
76617;SDS011;65509;42.816;74.648;2022-12-20T01:21:12;25.90;;;8.65;;
76617;SDS011;65509;42.816;74.648;2022-12-20T01:23:38;17.10;;;6.85;;
76617;SDS011;65509;42.816;74.648;2022-12-20T01:26:05;22.35;;;9.38;;
76617;SDS011;65509;42.816;74.648;2022-12-20T01:28:33;15.90;;;6.13;;
76617;SDS011;65509;42.816;74.648;2022-12-20T01:30:59;17.75;;;8.18;;
76617;SDS011;65509;42.816;74.648;2022-12-20T01:33:24;21.95;;;6.97;;
76617;SDS011;65509;42.816;74.648;2022-12-20T01:35:57;34.45;;;15.05;;
76617;SDS011;65509;42.816;74.648;2022-12-20T01:38:23;48.30;;;19.02;;
76617;SDS011;65509;42.816;74.648;2022-12-20T01:40:48;33.83;;;13.90;;
76617;SDS011;65509;42.816;74.648;2022-12-20T01:43:14;40.67;;;19.00;;
76617;SDS011;65509;42.816;74.648;2022-12-20T01:45:41;29.40;;;16.23;;
76617;SDS011;65509;42.816;74.648;2022-12-20T01:48:06;27.23;;;12.95;;
76617;SDS011;65509;42.816;74.648;2022-12-20T01:50:33;32.00;;;14.48;;
76617;SDS011;65509;42.816;74.648;2022-12-20T01:52:58;26.58;;;10.20;;
76617;SDS011;65509;42.816;74.648;2022-12-20T01:55:25;30.00;;;8.77;;
76617;SDS011;65509;42.816;74.648;2022-12-20T02:00:16;20.20;;;7.07;;
76617;SDS011;65509;42.816;74.648;2022-12-20T02:02:41;22.40;;;7.18;;
76617;SDS011;65509;42.816;74.648;2022-12-20T02:05:07;28.98;;;8.55;;
76617;SDS011;65509;42.816;74.648;2022-12-20T02:07:33;24.20;;;7.93;;
76617;SDS011;65509;42.816;74.648;2022-12-20T02:09:59;94.05;;;34.13;;
76617;SDS011;65509;42.816;74.648;2022-12-20T02:12:27;71.00;;;23.90;;
76617;SDS011;65509;42.816;74.648;2022-12-20T02:22:45;91.85;;;33.28;;
76617;SDS011;65509;42.816;74.648;2022-12-20T02:30:33;16.52;;;5.45;;
76617;SDS011;65509;42.816;74.648;2022-12-20T02:33:01;13.30;;;4.63;;
76617;SDS011;65509;42.816;74.648;2022-12-20T02:35:28;15.30;;;4.25;;
76617;SDS011;65509;42.816;74.648;2022-12-20T02:37:55;17.95;;;4.88;;
76617;SDS011;65509;42.816;74.648;2022-12-20T02:40:29;18.42;;;5.78;;
76617;SDS011;65509;42.816;74.648;2022-12-20T02:42:58;13.10;;;4.47;;
76617;SDS011;65509;42.816;74.648;2022-12-20T02:45:29;17.63;;;5.40;;
76617;SDS011;65509;42.816;74.648;2022-12-20T02:48:06;13.18;;;5.43;;
76617;SDS011;65509;42.816;74.648;2022-12-20T02:50:37;17.80;;;5.45;;
76617;SDS011;65509;42.816;74.648;2022-12-20T02:53:04;17.67;;;5.72;;
76617;SDS011;65509;42.816;74.648;2022-12-20T02:55:41;18.45;;;6.57;;
76617;SDS011;65509;42.816;74.648;2022-12-20T02:58:33;23.17;;;8.00;;
76617;SDS011;65509;42.816;74.648;2022-12-20T03:00:55;19.38;;;8.35;;
76617;SDS011;65509;42.816;74.648;2022-12-20T03:03:23;21.30;;;8.23;;
76617;SDS011;65509;42.816;74.648;2022-12-20T03:05:53;29.38;;;9.13;;
76617;SDS011;65509;42.816;74.648;2022-12-20T03:08:19;27.90;;;7.90;;
76617;SDS011;65509;42.816;74.648;2022-12-20T03:10:46;24.13;;;8.82;;
76617;SDS011;65509;42.816;74.648;2022-12-20T03:13:11;25.10;;;10.60;;
76617;SDS011;65509;42.816;74.648;2022-12-20T03:15:37;36.67;;;11.20;;
76617;SDS011;65509;42.816;74.648;2022-12-20T03:18:02;32.75;;;12.38;;
76617;SDS011;65509;42.816;74.648;2022-12-20T03:20:28;51.75;;;21.25;;
76617;SDS011;65509;42.816;74.648;2022-12-20T03:22:53;41.65;;;15.82;;
76617;SDS011;65509;42.816;74.648;2022-12-20T03:25:19;51.20;;;21.55;;
76617;SDS011;65509;42.816;74.648;2022-12-20T03:27:47;46.60;;;22.63;;
76617;SDS011;65509;42.816;74.648;2022-12-20T03:30:13;42.25;;;17.60;;
76617;SDS011;65509;42.816;74.648;2022-12-20T03:32:52;50.78;;;18.20;;
76617;SDS011;65509;42.816;74.648;2022-12-20T03:35:19;54.58;;;24.33;;
76617;SDS011;65509;42.816;74.648;2022-12-20T03:37:44;36.65;;;16.98;;
76617;SDS011;65509;42.816;74.648;2022-12-20T03:40:19;41.70;;;18.30;;
76617;SDS011;65509;42.816;74.648;2022-12-20T03:42:44;28.48;;;11.60;;
76617;SDS011;65509;42.816;74.648;2022-12-20T03:45:12;25.75;;;9.95;;
76617;SDS011;65509;42.816;74.648;2022-12-20T03:47:42;26.40;;;10.10;;
76617;SDS011;65509;42.816;74.648;2022-12-20T03:50:07;14.70;;;6.28;;
76617;SDS011;65509;42.816;74.648;2022-12-20T03:52:33;26.10;;;7.88;;
76617;SDS011;65509;42.816;74.648;2022-12-20T03:55:00;13.52;;;5.65;;
76617;SDS011;65509;42.816;74.648;2022-12-20T03:57:26;11.63;;;5.18;;
76617;SDS011;65509;42.816;74.648;2022-12-20T03:59:51;12.60;;;4.45;;
76617;SDS011;65509;42.816;74.648;2022-12-20T04:02:19;25.58;;;7.43;;
76617;SDS011;65509;42.816;74.648;2022-12-20T04:04:45;16.13;;;5.72;;
76617;SDS011;65509;42.816;74.648;2022-12-20T04:07:11;16.90;;;5.88;;
76617;SDS011;65509;42.816;74.648;2022-12-20T04:09:36;16.45;;;5.22;;
76617;SDS011;65509;42.816;74.648;2022-12-20T04:12:01;13.35;;;5.90;;
76617;SDS011;65509;42.816;74.648;2022-12-20T04:14:27;21.55;;;8.20;;
76617;SDS011;65509;42.816;74.648;2022-12-20T04:16:52;30.30;;;8.80;;
76617;SDS011;65509;42.816;74.648;2022-12-20T04:19:18;20.58;;;7.82;;
76617;SDS011;65509;42.816;74.648;2022-12-20T04:21:43;24.23;;;6.88;;
76617;SDS011;65509;42.816;74.648;2022-12-20T04:24:09;34.95;;;9.45;;
76617;SDS011;65509;42.816;74.648;2022-12-20T04:26:35;30.88;;;9.07;;
76617;SDS011;65509;42.816;74.648;2022-12-20T04:29:00;41.17;;;11.40;;
76617;SDS011;65509;42.816;74.648;2022-12-20T04:31:26;28.83;;;7.50;;
76617;SDS011;65509;42.816;74.648;2022-12-20T04:33:51;19.95;;;5.97;;
76617;SDS011;65509;42.816;74.648;2022-12-20T04:36:17;17.98;;;5.70;;
76617;SDS011;65509;42.816;74.648;2022-12-20T04:38:45;21.08;;;5.80;;
76617;SDS011;65509;42.816;74.648;2022-12-20T04:41:10;16.73;;;5.38;;
76617;SDS011;65509;42.816;74.648;2022-12-20T04:43:56;9.10;;;3.30;;
76617;SDS011;65509;42.816;74.648;2022-12-20T04:46:23;11.98;;;3.85;;
76617;SDS011;65509;42.816;74.648;2022-12-20T04:48:48;9.60;;;3.60;;
76617;SDS011;65509;42.816;74.648;2022-12-20T04:51:14;8.35;;;2.92;;
76617;SDS011;65509;42.816;74.648;2022-12-20T04:53:40;13.20;;;3.15;;
76617;SDS011;65509;42.816;74.648;2022-12-20T04:58:39;19.58;;;4.55;;
76617;SDS011;65509;42.816;74.648;2022-12-20T05:01:04;9.25;;;3.15;;
76617;SDS011;65509;42.816;74.648;2022-12-20T05:03:30;17.33;;;4.70;;
76617;SDS011;65509;42.816;74.648;2022-12-20T05:05:55;19.33;;;6.90;;
76617;SDS011;65509;42.816;74.648;2022-12-20T05:08:21;15.25;;;4.82;;
76617;SDS011;65509;42.816;74.648;2022-12-20T05:10:47;15.68;;;4.20;;
76617;SDS011;65509;42.816;74.648;2022-12-20T05:13:13;15.77;;;4.07;;
76617;SDS011;65509;42.816;74.648;2022-12-20T05:15:41;44.63;;;17.58;;
76617;SDS011;65509;42.816;74.648;2022-12-20T05:18:07;15.60;;;5.30;;
76617;SDS011;65509;42.816;74.648;2022-12-20T05:20:33;56.85;;;26.40;;
76617;SDS011;65509;42.816;74.648;2022-12-20T05:22:58;28.73;;;13.40;;
76617;SDS011;65509;42.816;74.648;2022-12-20T05:25:43;20.17;;;9.13;;
76617;SDS011;65509;42.816;74.648;2022-12-20T05:28:28;8.65;;;3.35;;
76617;SDS011;65509;42.816;74.648;2022-12-20T05:30:53;17.40;;;4.15;;
76617;SDS011;65509;42.816;74.648;2022-12-20T05:33:19;10.63;;;3.60;;
76617;SDS011;65509;42.816;74.648;2022-12-20T05:35:44;12.52;;;4.55;;
76617;SDS011;65509;42.816;74.648;2022-12-20T05:38:09;8.57;;;3.30;;
76617;SDS011;65509;42.816;74.648;2022-12-20T05:40:35;12.60;;;4.03;;
76617;SDS011;65509;42.816;74.648;2022-12-20T05:43:00;15.55;;;4.65;;
76617;SDS011;65509;42.816;74.648;2022-12-20T05:45:26;14.95;;;4.47;;
76617;SDS011;65509;42.816;74.648;2022-12-20T05:47:51;13.20;;;4.78;;
76617;SDS011;65509;42.816;74.648;2022-12-20T05:50:17;11.35;;;4.78;;
76617;SDS011;65509;42.816;74.648;2022-12-20T05:52:43;18.23;;;6.45;;
76617;SDS011;65509;42.816;74.648;2022-12-20T05:55:08;10.80;;;4.53;;
76617;SDS011;65509;42.816;74.648;2022-12-20T05:57:34;14.68;;;5.53;;
76617;SDS011;65509;42.816;74.648;2022-12-20T06:00:00;20.40;;;4.72;;
76617;SDS011;65509;42.816;74.648;2022-12-20T06:02:25;16.67;;;5.38;;
76617;SDS011;65509;42.816;74.648;2022-12-20T06:04:51;14.05;;;4.53;;
76617;SDS011;65509;42.816;74.648;2022-12-20T06:07:16;14.25;;;5.22;;
76617;SDS011;65509;42.816;74.648;2022-12-20T06:09:43;18.40;;;5.15;;
76617;SDS011;65509;42.816;74.648;2022-12-20T06:12:51;15.70;;;5.03;;
76617;SDS011;65509;42.816;74.648;2022-12-20T06:14:59;9.40;;;3.88;;
76617;SDS011;65509;42.816;74.648;2022-12-20T06:17:24;16.02;;;4.78;;
76617;SDS011;65509;42.816;74.648;2022-12-20T06:19:49;12.63;;;4.22;;
76617;SDS011;65509;42.816;74.648;2022-12-20T06:22:15;17.33;;;4.40;;
76617;SDS011;65509;42.816;74.648;2022-12-20T06:24:42;13.27;;;5.07;;
76617;SDS011;65509;42.816;74.648;2022-12-20T06:27:08;11.50;;;4.72;;
76617;SDS011;65509;42.816;74.648;2022-12-20T06:29:33;16.40;;;4.93;;
76617;SDS011;65509;42.816;74.648;2022-12-20T06:32:00;10.90;;;3.90;;
76617;SDS011;65509;42.816;74.648;2022-12-20T06:34:26;19.88;;;4.10;;
76617;SDS011;65509;42.816;74.648;2022-12-20T06:37:12;15.25;;;3.90;;
76617;SDS011;65509;42.816;74.648;2022-12-20T06:39:38;28.02;;;7.47;;
76617;SDS011;65509;42.816;74.648;2022-12-20T06:42:04;17.27;;;5.25;;
76617;SDS011;65509;42.816;74.648;2022-12-20T06:44:29;14.05;;;4.15;;
76617;SDS011;65509;42.816;74.648;2022-12-20T06:46:55;12.05;;;3.33;;
76617;SDS011;65509;42.816;74.648;2022-12-20T06:49:20;11.57;;;3.40;;
76617;SDS011;65509;42.816;74.648;2022-12-20T06:51:46;16.05;;;3.92;;
76617;SDS011;65509;42.816;74.648;2022-12-20T06:54:12;13.18;;;3.03;;
76617;SDS011;65509;42.816;74.648;2022-12-20T06:56:37;12.93;;;5.05;;
76617;SDS011;65509;42.816;74.648;2022-12-20T06:59:03;16.95;;;3.85;;
76617;SDS011;65509;42.816;74.648;2022-12-20T07:01:30;7.88;;;3.03;;
76617;SDS011;65509;42.816;74.648;2022-12-20T07:03:56;14.38;;;4.13;;
76617;SDS011;65509;42.816;74.648;2022-12-20T07:06:23;11.18;;;5.07;;
76617;SDS011;65509;42.816;74.648;2022-12-20T07:08:53;14.38;;;4.53;;
76617;SDS011;65509;42.816;74.648;2022-12-20T07:11:18;11.38;;;4.00;;
76617;SDS011;65509;42.816;74.648;2022-12-20T07:13:44;16.75;;;5.18;;
76617;SDS011;65509;42.816;74.648;2022-12-20T07:16:09;14.88;;;4.75;;
76617;SDS011;65509;42.816;74.648;2022-12-20T07:18:34;12.75;;;4.40;;
76617;SDS011;65509;42.816;74.648;2022-12-20T07:21:00;13.75;;;5.63;;
76617;SDS011;65509;42.816;74.648;2022-12-20T07:23:26;14.15;;;5.05;;
76617;SDS011;65509;42.816;74.648;2022-12-20T07:25:52;16.58;;;5.50;;
76617;SDS011;65509;42.816;74.648;2022-12-20T07:28:18;14.15;;;3.95;;
76617;SDS011;65509;42.816;74.648;2022-12-20T07:30:43;12.85;;;5.32;;
76617;SDS011;65509;42.816;74.648;2022-12-20T07:33:09;14.05;;;5.20;;
76617;SDS011;65509;42.816;74.648;2022-12-20T07:35:38;18.77;;;5.28;;
76617;SDS011;65509;42.816;74.648;2022-12-20T07:38:05;21.90;;;6.80;;
76617;SDS011;65509;42.816;74.648;2022-12-20T07:40:30;12.68;;;5.28;;
76617;SDS011;65509;42.816;74.648;2022-12-20T07:42:56;10.95;;;4.78;;
76617;SDS011;65509;42.816;74.648;2022-12-20T07:45:21;15.13;;;5.40;;
76617;SDS011;65509;42.816;74.648;2022-12-20T07:47:47;16.83;;;5.03;;
76617;SDS011;65509;42.816;74.648;2022-12-20T07:50:12;10.02;;;4.47;;
76617;SDS011;65509;42.816;74.648;2022-12-20T07:52:38;15.98;;;5.32;;
76617;SDS011;65509;42.816;74.648;2022-12-20T07:55:05;16.77;;;6.28;;
76617;SDS011;65509;42.816;74.648;2022-12-20T07:57:34;18.02;;;6.72;;
76617;SDS011;65509;42.816;74.648;2022-12-20T08:00:02;16.52;;;6.57;;
76617;SDS011;65509;42.816;74.648;2022-12-20T08:02:30;17.10;;;5.90;;
76617;SDS011;65509;42.816;74.648;2022-12-20T08:04:56;16.70;;;5.72;;
76617;SDS011;65509;42.816;74.648;2022-12-20T08:07:22;17.88;;;6.18;;
76617;SDS011;65509;42.816;74.648;2022-12-20T08:09:48;17.00;;;6.13;;
76617;SDS011;65509;42.816;74.648;2022-12-20T08:12:14;16.10;;;5.53;;
76617;SDS011;65509;42.816;74.648;2022-12-20T08:14:40;14.02;;;5.80;;
76617;SDS011;65509;42.816;74.648;2022-12-20T08:17:06;18.17;;;5.65;;
76617;SDS011;65509;42.816;74.648;2022-12-20T08:19:31;23.65;;;6.65;;
76617;SDS011;65509;42.816;74.648;2022-12-20T08:21:57;17.75;;;5.50;;
76617;SDS011;65509;42.816;74.648;2022-12-20T08:24:23;14.50;;;6.20;;
76617;SDS011;65509;42.816;74.648;2022-12-20T08:26:48;26.20;;;7.85;;
76617;SDS011;65509;42.816;74.648;2022-12-20T08:29:14;22.98;;;8.13;;
76617;SDS011;65509;42.816;74.648;2022-12-20T08:31:40;20.52;;;7.28;;
76617;SDS011;65509;42.816;74.648;2022-12-20T08:34:08;22.83;;;7.65;;
76617;SDS011;65509;42.816;74.648;2022-12-20T08:36:34;15.65;;;6.88;;
76617;SDS011;65509;42.816;74.648;2022-12-20T08:39:05;17.98;;;6.50;;
76617;SDS011;65509;42.816;74.648;2022-12-20T08:41:32;20.52;;;7.35;;
76617;SDS011;65509;42.816;74.648;2022-12-20T08:43:58;25.67;;;8.65;;
76617;SDS011;65509;42.816;74.648;2022-12-20T08:46:25;20.95;;;8.27;;
76617;SDS011;65509;42.816;74.648;2022-12-20T08:48:51;22.23;;;9.50;;
76617;SDS011;65509;42.816;74.648;2022-12-20T08:51:16;24.95;;;9.52;;
76617;SDS011;65509;42.816;74.648;2022-12-20T08:53:44;35.35;;;9.88;;
76617;SDS011;65509;42.816;74.648;2022-12-20T08:56:10;30.52;;;9.00;;
76617;SDS011;65509;42.816;74.648;2022-12-20T08:58:39;22.63;;;9.70;;
76617;SDS011;65509;42.816;74.648;2022-12-20T09:01:05;26.85;;;10.13;;
76617;SDS011;65509;42.816;74.648;2022-12-20T09:03:32;36.78;;;10.90;;
76617;SDS011;65509;42.816;74.648;2022-12-20T09:05:59;24.10;;;9.82;;
76617;SDS011;65509;42.816;74.648;2022-12-20T09:08:25;20.42;;;9.38;;
76617;SDS011;65509;42.816;74.648;2022-12-20T09:10:50;26.27;;;10.25;;
76617;SDS011;65509;42.816;74.648;2022-12-20T09:13:16;26.85;;;10.77;;
76617;SDS011;65509;42.816;74.648;2022-12-20T09:15:42;32.38;;;11.32;;
76617;SDS011;65509;42.816;74.648;2022-12-20T09:18:09;27.20;;;11.15;;
76617;SDS011;65509;42.816;74.648;2022-12-20T09:20:34;26.88;;;11.93;;
76617;SDS011;65509;42.816;74.648;2022-12-20T09:23:01;26.27;;;11.60;;
76617;SDS011;65509;42.816;74.648;2022-12-20T09:25:27;23.52;;;9.93;;
76617;SDS011;65509;42.816;74.648;2022-12-20T09:27:53;28.13;;;10.35;;
76617;SDS011;65509;42.816;74.648;2022-12-20T09:30:22;22.90;;;10.18;;
76617;SDS011;65509;42.816;74.648;2022-12-20T09:32:48;31.45;;;11.73;;
76617;SDS011;65509;42.816;74.648;2022-12-20T09:35:15;24.38;;;10.18;;
76617;SDS011;65509;42.816;74.648;2022-12-20T09:37:40;25.92;;;11.15;;
76617;SDS011;65509;42.816;74.648;2022-12-20T09:40:08;26.35;;;10.68;;
76617;SDS011;65509;42.816;74.648;2022-12-20T09:42:41;22.38;;;9.50;;
76617;SDS011;65509;42.816;74.648;2022-12-20T09:48:19;24.25;;;8.38;;
76617;SDS011;65509;42.816;74.648;2022-12-20T09:51:00;27.30;;;10.07;;
76617;SDS011;65509;42.816;74.648;2022-12-20T09:55:57;31.10;;;10.70;;
76617;SDS011;65509;42.816;74.648;2022-12-20T09:58:51;33.72;;;11.60;;
76617;SDS011;65509;42.816;74.648;2022-12-20T10:01:25;31.23;;;10.18;;
76617;SDS011;65509;42.816;74.648;2022-12-20T10:03:57;31.33;;;10.98;;
76617;SDS011;65509;42.816;74.648;2022-12-20T10:09:04;24.77;;;11.27;;
76617;SDS011;65509;42.816;74.648;2022-12-20T10:17:10;25.58;;;9.23;;
76617;SDS011;65509;42.816;74.648;2022-12-20T10:22:04;22.40;;;9.13;;
76617;SDS011;65509;42.816;74.648;2022-12-20T10:24:33;23.75;;;8.00;;
76617;SDS011;65509;42.816;74.648;2022-12-20T10:27:01;23.52;;;8.48;;
76617;SDS011;65509;42.816;74.648;2022-12-20T10:29:29;14.57;;;6.80;;
76617;SDS011;65509;42.816;74.648;2022-12-20T10:31:57;28.67;;;9.95;;
76617;SDS011;65509;42.816;74.648;2022-12-20T10:34:26;34.42;;;12.65;;
76617;SDS011;65509;42.816;74.648;2022-12-20T10:37:12;38.40;;;14.75;;
76617;SDS011;65509;42.816;74.648;2022-12-20T10:39:41;34.25;;;12.35;;
76617;SDS011;65509;42.816;74.648;2022-12-20T10:42:49;26.80;;;12.35;;
76617;SDS011;65509;42.816;74.648;2022-12-20T10:44:56;29.00;;;12.23;;
76617;SDS011;65509;42.816;74.648;2022-12-20T10:50:32;32.33;;;13.05;;
76617;SDS011;65509;42.816;74.648;2022-12-20T10:55:36;42.88;;;21.83;;
76617;SDS011;65509;42.816;74.648;2022-12-20T11:00:49;39.20;;;15.85;;
76617;SDS011;65509;42.816;74.648;2022-12-20T11:03:19;35.78;;;12.20;;
76617;SDS011;65509;42.816;74.648;2022-12-20T11:06:00;40.42;;;10.63;;
76617;SDS011;65509;42.816;74.648;2022-12-20T11:11:17;128.43;;;49.47;;
76617;SDS011;65509;42.816;74.648;2022-12-20T11:13:42;196.88;;;78.82;;
76617;SDS011;65509;42.816;74.648;2022-12-20T11:16:24;188.00;;;72.88;;
76617;SDS011;65509;42.816;74.648;2022-12-20T11:24:12;146.93;;;62.58;;
76617;SDS011;65509;42.816;74.648;2022-12-20T11:26:57;116.40;;;47.17;;
76617;SDS011;65509;42.816;74.648;2022-12-20T11:29:50;94.80;;;39.50;;
76617;SDS011;65509;42.816;74.648;2022-12-20T11:34:53;79.75;;;29.05;;
76617;SDS011;65509;42.816;74.648;2022-12-20T11:37:26;106.53;;;32.53;;
76617;SDS011;65509;42.816;74.648;2022-12-20T11:39:59;97.82;;;38.72;;
76617;SDS011;65509;42.816;74.648;2022-12-20T11:42:51;121.78;;;48.65;;
76617;SDS011;65509;42.816;74.648;2022-12-20T11:45:27;80.75;;;33.15;;
76617;SDS011;65509;42.816;74.648;2022-12-20T11:47:59;104.40;;;51.45;;
76617;SDS011;65509;42.816;74.648;2022-12-20T11:53:15;151.38;;;66.22;;
76617;SDS011;65509;42.816;74.648;2022-12-20T11:55:45;165.50;;;70.65;;
76617;SDS011;65509;42.816;74.648;2022-12-20T11:58:46;153.77;;;69.35;;
76617;SDS011;65509;42.816;74.648;2022-12-20T12:01:03;248.63;;;63.90;;
76617;SDS011;65509;42.816;74.648;2022-12-20T12:03:35;271.15;;;63.22;;
76617;SDS011;65509;42.816;74.648;2022-12-20T12:06:44;203.25;;;52.20;;
76617;SDS011;65509;42.816;74.648;2022-12-20T12:09:03;147.95;;;47.72;;
76617;SDS011;65509;42.816;74.648;2022-12-20T12:11:30;172.15;;;50.53;;
76617;SDS011;65509;42.816;74.648;2022-12-20T12:13:57;136.52;;;46.15;;
76617;SDS011;65509;42.816;74.648;2022-12-20T12:16:27;165.98;;;49.03;;
76617;SDS011;65509;42.816;74.648;2022-12-20T12:18:56;127.38;;;37.25;;
76617;SDS011;65509;42.816;74.648;2022-12-20T12:21:26;113.57;;;34.63;;
76617;SDS011;65509;42.816;74.648;2022-12-20T12:28:56;96.25;;;29.27;;
76617;SDS011;65509;42.816;74.648;2022-12-20T12:31:28;129.98;;;39.33;;
76617;SDS011;65509;42.816;74.648;2022-12-20T12:34:09;152.50;;;41.90;;
76617;SDS011;65509;42.816;74.648;2022-12-20T12:36:48;115.45;;;30.02;;
76617;SDS011;65509;42.816;74.648;2022-12-20T12:45:06;148.23;;;46.45;;
76617;SDS011;65509;42.816;74.648;2022-12-20T12:47:07;171.85;;;51.92;;
76617;SDS011;65509;42.816;74.648;2022-12-20T12:49:35;149.18;;;46.17;;
76617;SDS011;65509;42.816;74.648;2022-12-20T12:52:04;154.45;;;49.78;;
76617;SDS011;65509;42.816;74.648;2022-12-20T12:54:39;137.98;;;42.55;;
76617;SDS011;65509;42.816;74.648;2022-12-20T12:57:09;121.30;;;36.28;;
76617;SDS011;65509;42.816;74.648;2022-12-20T12:59:39;125.30;;;34.40;;
76617;SDS011;65509;42.816;74.648;2022-12-20T13:09:56;134.30;;;37.05;;
76617;SDS011;65509;42.816;74.648;2022-12-20T13:17:49;137.00;;;36.83;;
76617;SDS011;65509;42.816;74.648;2022-12-20T13:25:28;107.05;;;39.05;;
76617;SDS011;65509;42.816;74.648;2022-12-20T13:30:46;119.20;;;30.08;;
76617;SDS011;65509;42.816;74.648;2022-12-20T13:35:46;123.47;;;32.45;;
76617;SDS011;65509;42.816;74.648;2022-12-20T13:38:35;134.75;;;35.10;;
76617;SDS011;65509;42.816;74.648;2022-12-20T13:41:01;122.70;;;35.20;;
76617;SDS011;65509;42.816;74.648;2022-12-20T13:43:33;106.72;;;29.98;;
76617;SDS011;65509;42.816;74.648;2022-12-20T13:46:13;86.53;;;25.08;;
76617;SDS011;65509;42.816;74.648;2022-12-20T13:51:25;80.20;;;22.13;;
76617;SDS011;65509;42.816;74.648;2022-12-20T13:53:59;55.72;;;16.52;;
76617;SDS011;65509;42.816;74.648;2022-12-20T13:56:31;63.17;;;20.33;;
76617;SDS011;65509;42.816;74.648;2022-12-20T13:58:58;64.45;;;21.95;;
76617;SDS011;65509;42.816;74.648;2022-12-20T14:01:27;120.57;;;36.88;;
76617;SDS011;65509;42.816;74.648;2022-12-20T14:03:56;95.25;;;32.10;;
76617;SDS011;65509;42.816;74.648;2022-12-20T14:09:36;84.33;;;29.60;;
76617;SDS011;65509;42.816;74.648;2022-12-20T14:12:04;287.75;;;75.75;;
76617;SDS011;65509;42.816;74.648;2022-12-20T14:14:35;121.95;;;40.00;;
76617;SDS011;65509;42.816;74.648;2022-12-20T14:22:37;141.13;;;40.78;;
76617;SDS011;65509;42.816;74.648;2022-12-20T14:25:06;107.38;;;31.83;;
76617;SDS011;65509;42.816;74.648;2022-12-20T14:27:33;109.32;;;32.85;;
76617;SDS011;65509;42.816;74.648;2022-12-20T14:30:25;68.75;;;23.65;;
76617;SDS011;65509;42.816;74.648;2022-12-20T14:32:51;69.07;;;24.27;;
76617;SDS011;65509;42.816;74.648;2022-12-20T14:35:17;81.70;;;26.92;;
76617;SDS011;65509;42.816;74.648;2022-12-20T14:37:43;83.93;;;28.23;;
76617;SDS011;65509;42.816;74.648;2022-12-20T14:40:19;148.65;;;48.22;;
76617;SDS011;65509;42.816;74.648;2022-12-20T14:42:46;104.63;;;36.38;;
76617;SDS011;65509;42.816;74.648;2022-12-20T14:45:17;106.68;;;30.80;;
76617;SDS011;65509;42.816;74.648;2022-12-20T14:47:50;118.70;;;32.67;;
76617;SDS011;65509;42.816;74.648;2022-12-20T14:50:23;114.00;;;31.55;;
76617;SDS011;65509;42.816;74.648;2022-12-20T14:52:50;116.88;;;34.92;;
76617;SDS011;65509;42.816;74.648;2022-12-20T14:55:20;123.28;;;36.13;;
76617;SDS011;65509;42.816;74.648;2022-12-20T14:57:47;112.03;;;34.22;;
76617;SDS011;65509;42.816;74.648;2022-12-20T15:02:51;70.75;;;22.80;;
76617;SDS011;65509;42.816;74.648;2022-12-20T15:08:30;63.65;;;20.00;;
76617;SDS011;65509;42.816;74.648;2022-12-20T15:16:01;85.00;;;28.83;;
76617;SDS011;65509;42.816;74.648;2022-12-20T15:18:28;87.55;;;32.67;;
76617;SDS011;65509;42.816;74.648;2022-12-20T15:21:04;56.08;;;22.48;;
76617;SDS011;65509;42.816;74.648;2022-12-20T15:23:30;61.30;;;22.52;;
76617;SDS011;65509;42.816;74.648;2022-12-20T15:25:57;94.18;;;26.92;;
76617;SDS011;65509;42.816;74.648;2022-12-20T15:28:24;62.30;;;19.55;;
76617;SDS011;65509;42.816;74.648;2022-12-20T15:30:50;74.30;;;25.95;;
76617;SDS011;65509;42.816;74.648;2022-12-20T15:33:17;79.55;;;24.30;;
76617;SDS011;65509;42.816;74.648;2022-12-20T15:35:44;69.70;;;24.33;;
76617;SDS011;65509;42.816;74.648;2022-12-20T15:38:13;65.82;;;22.98;;
76617;SDS011;65509;42.816;74.648;2022-12-20T15:40:40;62.67;;;22.75;;
76617;SDS011;65509;42.816;74.648;2022-12-20T15:43:08;70.90;;;23.88;;
76617;SDS011;65509;42.816;74.648;2022-12-20T15:45:34;52.90;;;19.60;;
76617;SDS011;65509;42.816;74.648;2022-12-20T15:48:00;65.63;;;25.02;;
76617;SDS011;65509;42.816;74.648;2022-12-20T15:50:26;86.25;;;31.90;;
76617;SDS011;65509;42.816;74.648;2022-12-20T15:52:54;109.20;;;42.38;;
76617;SDS011;65509;42.816;74.648;2022-12-20T15:55:19;52.00;;;22.40;;
76617;SDS011;65509;42.816;74.648;2022-12-20T15:57:45;39.13;;;15.75;;
76617;SDS011;65509;42.816;74.648;2022-12-20T16:00:15;62.65;;;21.02;;
76617;SDS011;65509;42.816;74.648;2022-12-20T16:02:40;69.18;;;22.58;;
76617;SDS011;65509;42.816;74.648;2022-12-20T16:05:08;68.93;;;20.75;;
76617;SDS011;65509;42.816;74.648;2022-12-20T16:07:35;68.68;;;23.77;;
76617;SDS011;65509;42.816;74.648;2022-12-20T16:10:01;84.13;;;28.52;;
76617;SDS011;65509;42.816;74.648;2022-12-20T16:12:31;97.18;;;32.35;;